createdAt,value
2019-01-02T00:00:35.867Z,3.17
2019-01-02T00:03:39.721Z,3.10
2019-01-02T00:06:47.035Z,3.07
2019-01-02T00:09:50.875Z,3.10
2019-01-02T00:12:55.123Z,3.17
2019-01-02T00:15:59.006Z,3.20
2019-01-02T00:19:03.177Z,3.00
2019-01-02T00:22:07.173Z,3.10
2019-01-02T00:25:10.790Z,3.07
2019-01-02T00:28:20.296Z,3.20
2019-01-02T00:31:23.897Z,3.17
2019-01-02T00:34:27.499Z,2.97
2019-01-02T00:37:31.449Z,3.13
2019-01-02T00:40:35.300Z,2.70
2019-01-02T00:43:38.915Z,3.10
2019-01-02T00:46:43.152Z,3.00
2019-01-02T00:49:47.094Z,2.90
2019-01-02T00:52:51.199Z,3.10
2019-01-02T00:55:55.151Z,3.17
2019-01-02T00:58:58.768Z,3.20
2019-01-02T01:02:02.611Z,3.40
2019-01-02T01:05:06.387Z,2.70
2019-01-02T01:08:10.434Z,3.20
2019-01-02T01:11:14.323Z,3.00
2019-01-02T01:14:18.208Z,2.90
2019-01-02T01:17:22.079Z,2.73
2019-01-02T01:20:26.013Z,3.03
2019-01-02T01:23:29.628Z,2.93
2019-01-02T01:26:33.786Z,2.70
2019-01-02T01:29:37.647Z,3.10
2019-01-02T01:32:41.260Z,3.23
2019-01-02T01:35:44.896Z,3.03
2019-01-02T01:38:48.499Z,2.87
2019-01-02T01:41:52.346Z,2.80
2019-01-02T01:44:56.007Z,3.30
2019-01-02T01:47:59.854Z,2.73
2019-01-02T01:51:03.475Z,2.63
2019-01-02T01:54:07.351Z,2.80
2019-01-02T01:57:10.961Z,2.47
2019-01-02T02:00:17.170Z,2.97
2019-01-02T02:03:20.774Z,3.10
2019-01-02T02:06:24.446Z,3.20
2019-01-02T02:09:28.035Z,2.50
2019-01-02T02:12:31.657Z,2.60
2019-01-02T02:15:35.590Z,2.47
2019-01-02T02:18:39.437Z,2.63
2019-01-02T02:21:43.049Z,2.43
2019-01-02T02:24:47.457Z,2.70
2019-01-02T02:27:51.468Z,2.67
2019-01-02T02:30:55.646Z,2.30
2019-01-02T02:33:59.654Z,2.27
2019-01-02T02:37:03.851Z,2.43
2019-01-02T02:40:09.092Z,2.40
2019-01-02T02:43:12.972Z,2.50
2019-01-02T02:46:16.573Z,2.40
2019-01-02T02:49:20.200Z,2.30
2019-01-02T02:52:23.869Z,2.40
2019-01-02T02:55:28.067Z,2.50
2019-01-02T02:58:32.007Z,2.30
2019-01-02T03:01:35.889Z,2.30
2019-01-02T03:04:40.116Z,1.90
2019-01-02T03:07:44.089Z,2.03
2019-01-02T03:10:48.243Z,2.30
2019-01-02T03:13:52.926Z,2.40
2019-01-02T03:16:56.942Z,2.20
2019-01-02T03:20:00.737Z,2.17
2019-01-02T03:23:04.722Z,2.27
2019-01-02T03:26:08.660Z,2.20
2019-01-02T03:29:12.571Z,2.20
2019-01-02T03:32:16.466Z,2.20
2019-01-02T03:35:20.459Z,2.20
2019-01-02T03:38:24.229Z,2.40
2019-01-02T03:41:27.823Z,2.10
2019-01-02T03:44:31.744Z,2.03
2019-01-02T03:47:35.419Z,2.00
2019-01-02T03:50:39.031Z,2.03
2019-01-02T03:53:42.691Z,2.33
2019-01-02T03:56:46.824Z,2.10
2019-01-02T03:59:50.708Z,2.00
2019-01-02T04:02:54.582Z,1.90
2019-01-02T04:05:58.817Z,2.00
2019-01-02T04:09:02.470Z,1.80
2019-01-02T04:12:06.180Z,2.40
2019-01-02T04:15:09.864Z,2.10
2019-01-02T04:18:13.504Z,1.97
2019-01-02T04:21:17.681Z,1.90
2019-01-02T04:24:21.559Z,1.80
2019-01-02T04:27:25.445Z,2.00
2019-01-02T04:30:29.340Z,1.77
2019-01-02T04:33:33.243Z,2.00
2019-01-02T04:36:36.835Z,2.00
2019-01-02T04:39:40.462Z,2.13
2019-01-02T04:42:44.610Z,1.67
2019-01-02T04:45:48.230Z,1.80
2019-01-02T04:48:52.178Z,1.70
2019-01-02T04:51:56.141Z,1.80
2019-01-02T04:54:59.848Z,1.90
2019-01-02T04:58:03.613Z,1.97
2019-01-02T05:01:07.496Z,1.77
2019-01-02T05:04:11.615Z,1.90
2019-01-02T05:07:15.498Z,1.60
2019-01-02T05:10:19.364Z,1.90
2019-01-02T05:13:23.273Z,1.60
2019-01-02T05:16:26.858Z,1.90
2019-01-02T05:19:30.535Z,1.73
2019-01-02T05:22:34.160Z,1.77
2019-01-02T05:25:37.778Z,1.70
2019-01-02T05:28:41.439Z,1.90
2019-01-02T05:31:45.248Z,1.97
2019-01-02T05:34:49.366Z,1.80
2019-01-02T05:37:54.012Z,1.90
2019-01-02T05:40:58.169Z,1.83
2019-01-02T05:44:02.498Z,1.87
2019-01-02T05:47:06.631Z,1.60
2019-01-02T05:50:10.456Z,1.70
2019-01-02T05:53:14.599Z,1.57
2019-01-02T05:56:18.288Z,1.90
2019-01-02T05:59:21.944Z,1.93
2019-01-02T06:02:25.686Z,2.17
2019-01-02T06:05:29.310Z,2.07
2019-01-02T06:08:33.571Z,1.53
2019-01-02T06:11:37.847Z,1.87
2019-01-02T06:14:41.624Z,1.97
2019-01-02T06:17:45.710Z,2.07
2019-01-02T06:20:49.359Z,2.07
2019-01-02T06:23:52.988Z,1.80
2019-01-02T06:26:56.607Z,1.67
2019-01-02T06:30:00.556Z,1.70
2019-01-02T06:33:04.447Z,1.97
2019-01-02T06:36:08.469Z,1.57
2019-01-02T06:39:12.356Z,1.93
2019-01-02T06:42:15.946Z,1.60
2019-01-02T06:45:20.039Z,1.67
2019-01-02T06:48:23.669Z,1.50
2019-01-02T06:51:28.600Z,1.60
2019-01-02T06:54:32.516Z,1.70
2019-01-02T06:57:36.151Z,1.30
2019-01-02T07:00:41.663Z,1.57
2019-01-02T07:03:51.766Z,1.57
2019-01-02T07:06:55.398Z,1.73
2019-01-02T07:09:59.262Z,1.43
2019-01-02T07:13:03.179Z,1.40
2019-01-02T07:16:07.357Z,1.60
2019-01-02T07:19:11.370Z,1.47
2019-01-02T07:22:14.972Z,1.40
2019-01-02T07:25:19.232Z,2.00
2019-01-02T07:28:23.127Z,1.53
2019-01-02T07:31:26.751Z,1.60
2019-01-02T07:35:05.588Z,1.33
2019-01-02T07:38:33.352Z,1.60
2019-01-02T07:42:19.616Z,1.50
2019-01-02T07:46:00.317Z,1.60
2019-01-02T07:49:50.696Z,1.47
2019-01-02T07:53:09.743Z,1.40
2019-01-02T07:56:42.672Z,1.30
2019-01-02T08:00:06.009Z,1.50
2019-01-02T08:03:53.285Z,1.20
2019-01-02T08:07:56.226Z,1.30
2019-01-02T08:11:49.962Z,1.30
2019-01-02T08:15:50.037Z,1.27
2019-01-02T08:19:38.677Z,1.20
2019-01-02T08:23:24.054Z,1.30
2019-01-02T08:26:42.186Z,1.30
2019-01-02T08:30:25.619Z,1.40
2019-01-02T08:34:12.896Z,1.23
2019-01-02T08:37:45.108Z,1.47
2019-01-02T08:41:23.935Z,1.30
2019-01-02T08:44:40.917Z,1.20
2019-01-02T08:48:34.759Z,1.03
2019-01-02T08:52:19.583Z,1.17
2019-01-02T08:56:01.790Z,1.20
2019-01-02T08:59:34.088Z,1.10
2019-01-02T09:03:08.076Z,1.03
2019-01-02T09:06:52.378Z,1.00
2019-01-02T09:10:27.449Z,1.10
2019-01-02T09:13:57.842Z,1.40
2019-01-02T09:17:41.832Z,0.97
2019-01-02T09:21:24.589Z,0.93
2019-01-02T09:25:06.842Z,1.13
2019-01-02T09:28:47.648Z,1.20
2019-01-02T09:32:16.290Z,1.20
2019-01-02T09:36:01.298Z,1.10
2019-01-02T09:39:46.420Z,1.20
2019-01-02T09:43:26.338Z,1.67
2019-01-02T09:46:53.904Z,1.33
2019-01-02T09:50:21.925Z,1.47
2019-01-02T09:53:59.343Z,1.30
2019-01-02T09:57:52.138Z,1.30
2019-01-02T10:01:05.886Z,1.63
2019-01-02T10:04:50.947Z,1.50
2019-01-02T10:08:38.803Z,1.23
2019-01-02T10:12:02.652Z,1.40
2019-01-02T10:15:28.504Z,1.27
2019-01-02T10:19:15.331Z,1.20
2019-01-02T10:23:09.475Z,1.20
2019-01-02T10:26:39.655Z,1.33
2019-01-02T10:30:12.836Z,1.40
2019-01-02T10:34:06.991Z,1.20
2019-01-02T10:37:43.095Z,0.90
2019-01-02T10:41:10.627Z,1.17
2019-01-02T10:45:00.498Z,1.50
2019-01-02T10:48:28.200Z,1.10
2019-01-02T10:52:03.960Z,1.20
2019-01-02T10:55:39.445Z,1.20
2019-01-02T10:59:22.800Z,1.10
2019-01-02T11:03:03.333Z,1.20
2019-01-02T11:06:49.758Z,1.17
2019-01-02T11:10:31.227Z,1.37
2019-01-02T11:14:10.547Z,1.23
2019-01-02T11:18:14.078Z,0.97
2019-01-02T11:21:39.180Z,1.70
2019-01-02T11:25:28.244Z,1.30
2019-01-02T11:29:00.123Z,1.60
2019-01-02T11:32:32.484Z,1.23
2019-01-02T11:36:10.815Z,1.00
2019-01-02T11:39:46.131Z,1.10
2019-01-02T11:43:14.586Z,1.10
2019-01-02T11:46:20.435Z,1.53
2019-01-02T11:49:24.147Z,0.97
2019-01-02T11:52:28.575Z,1.20
2019-01-02T11:55:32.669Z,1.10
2019-01-02T11:58:36.940Z,1.47
2019-01-02T12:01:40.817Z,1.80
2019-01-02T12:04:44.434Z,1.10
2019-01-02T12:07:48.101Z,1.60
2019-01-02T12:10:51.735Z,1.30
2019-01-02T12:13:55.697Z,1.50
2019-01-02T12:16:59.329Z,1.30
2019-01-02T12:20:03.228Z,1.20
2019-01-02T12:23:06.901Z,1.00
2019-01-02T12:26:10.554Z,1.10
2019-01-02T12:29:14.468Z,1.20
2019-01-02T12:32:18.085Z,1.30
2019-01-02T12:35:33.289Z,1.00
2019-01-02T12:38:36.905Z,1.23
2019-01-02T12:41:40.902Z,1.10
2019-01-02T12:44:45.201Z,1.07
2019-01-02T12:47:49.162Z,1.00
2019-01-02T12:50:53.101Z,1.10
2019-01-02T12:53:57.593Z,1.07
2019-01-02T12:57:01.487Z,1.20
2019-01-02T13:00:14.484Z,1.20
2019-01-02T13:04:14.740Z,1.30
2019-01-02T13:08:01.706Z,1.30
2019-01-02T13:11:13.812Z,1.13
2019-01-02T13:14:55.971Z,1.23
2019-01-02T13:18:23.463Z,1.23
2019-01-02T13:21:36.753Z,1.13
2019-01-02T13:24:49.611Z,0.93
2019-01-02T13:28:37.237Z,1.10
2019-01-02T13:32:01.653Z,1.10
2019-01-02T13:35:33.462Z,1.00
2019-01-02T13:38:48.282Z,1.20
2019-01-02T13:42:09.818Z,1.20
2019-01-02T13:46:00.817Z,1.30
2019-01-02T13:49:29.256Z,1.03
2019-01-02T13:52:33.504Z,1.20
2019-01-02T13:55:48.516Z,1.20
2019-01-02T13:58:52.765Z,1.13
2019-01-02T14:01:56.705Z,1.10
2019-01-02T14:05:22.300Z,1.00
2019-01-02T14:08:26.494Z,1.07
2019-01-02T14:11:30.110Z,1.13
2019-01-02T14:14:47.255Z,1.10
2019-01-02T14:17:51.138Z,1.10
2019-01-02T14:20:55.272Z,1.10
2019-01-02T14:24:05.957Z,1.00
2019-01-02T14:27:10.491Z,1.27
2019-01-02T14:30:14.429Z,1.00
2019-01-02T14:33:18.151Z,1.10
2019-01-02T14:36:22.004Z,1.20
2019-01-02T14:39:25.638Z,1.00
2019-01-02T14:42:29.638Z,1.00
2019-01-02T14:45:33.351Z,1.30
2019-01-02T14:48:37.240Z,1.30
2019-01-02T14:51:41.126Z,1.00
2019-01-02T14:54:44.754Z,1.10
2019-01-02T14:57:48.370Z,1.10
2019-01-02T15:00:54.125Z,1.10
2019-01-02T15:03:57.760Z,1.00
2019-01-02T15:07:01.377Z,1.00
2019-01-02T15:10:08.616Z,1.20
2019-01-02T15:13:12.211Z,1.03
2019-01-02T15:20:28.169Z,1.10
2019-01-02T15:23:32.136Z,1.10
2019-01-02T15:26:36.466Z,1.10
2019-01-02T15:29:40.083Z,1.20
2019-01-02T15:32:43.677Z,1.03
2019-01-02T15:35:49.031Z,1.40
2019-01-02T15:38:52.873Z,1.20
2019-01-02T15:41:56.839Z,1.10
2019-01-02T15:45:00.456Z,1.10
2019-01-02T15:48:04.394Z,1.10
2019-01-02T15:51:08.716Z,1.00
2019-01-02T15:54:12.349Z,1.17
2019-01-02T15:57:27.452Z,1.17
2019-01-02T16:00:31.457Z,1.30
2019-01-02T16:03:50.965Z,1.10
2019-01-02T16:06:56.027Z,1.20
2019-01-02T16:10:01.977Z,1.53
2019-01-02T16:13:43.280Z,1.17
2019-01-02T16:17:02.757Z,1.83
2019-01-02T16:20:10.339Z,3.13
2019-01-02T16:23:14.746Z,2.67
2019-01-02T16:26:18.623Z,2.30
2019-01-02T16:29:22.514Z,2.93
2019-01-02T16:32:42.304Z,2.50
2019-01-02T16:35:45.980Z,2.23
2019-01-02T16:38:50.064Z,2.67
2019-01-02T16:41:53.671Z,2.30
2019-01-02T16:45:05.323Z,2.27
2019-01-02T16:48:08.936Z,2.03
2019-01-02T16:51:13.118Z,2.00
2019-01-02T16:54:28.913Z,1.90
2019-01-02T16:57:33.042Z,1.97
2019-01-02T17:00:36.833Z,2.10
2019-01-02T17:03:40.965Z,1.83
2019-01-02T17:06:44.701Z,2.13
2019-01-02T17:09:48.621Z,2.07
2019-01-02T17:12:52.596Z,2.10
2019-01-02T17:16:02.936Z,2.47
2019-01-02T17:19:07.282Z,1.80
2019-01-02T17:22:11.513Z,1.80
2019-01-02T17:25:21.452Z,1.77
2019-01-02T17:28:25.594Z,1.60
2019-01-02T17:31:29.614Z,1.37
2019-01-02T17:34:33.736Z,1.80
2019-01-02T17:37:49.596Z,1.90
2019-01-02T17:40:53.530Z,1.57
2019-01-02T17:43:57.792Z,1.73
2019-01-02T17:47:02.487Z,1.30
2019-01-02T17:50:17.358Z,2.00
2019-01-02T17:53:21.001Z,1.60
2019-01-02T17:56:25.131Z,1.57
2019-01-02T17:59:28.772Z,1.50
2019-01-02T18:02:32.660Z,1.33
2019-01-02T18:05:36.371Z,1.50
2019-01-02T18:08:49.762Z,1.40
2019-01-02T18:11:54.000Z,1.30
2019-01-02T18:14:57.980Z,1.57
2019-01-02T18:18:07.771Z,1.43
2019-01-02T18:21:59.386Z,1.50
2019-01-02T18:25:04.145Z,1.40
2019-01-02T18:28:15.298Z,1.63
2019-01-02T18:31:22.826Z,1.70
2019-01-02T18:34:26.952Z,1.50
2019-01-02T18:37:30.973Z,1.50
2019-01-02T18:40:41.543Z,1.50
2019-01-02T18:43:45.496Z,1.50
2019-01-02T18:46:49.195Z,1.87
2019-01-02T18:49:58.442Z,1.40
2019-01-02T18:53:09.153Z,1.37
2019-01-02T18:56:13.201Z,1.53
2019-01-02T18:59:18.322Z,1.27
2019-01-02T19:02:26.794Z,1.40
2019-01-02T19:05:32.297Z,2.00
2019-01-02T19:08:35.996Z,2.43
2019-01-02T19:11:39.614Z,1.90
2019-01-02T19:14:43.573Z,2.03
2019-01-02T19:17:47.901Z,1.97
2019-01-02T19:21:00.080Z,1.50
2019-01-02T19:24:11.302Z,1.90
2019-01-02T19:27:15.257Z,1.83
2019-01-02T19:30:21.191Z,1.57
2019-01-02T19:33:34.259Z,1.70
2019-01-02T19:36:38.231Z,1.50
2019-01-02T19:39:56.079Z,1.53
2019-01-02T19:42:59.739Z,1.57
2019-01-02T19:46:05.954Z,1.90
2019-01-02T19:49:13.852Z,1.53
2019-01-02T19:52:24.597Z,1.37
2019-01-02T19:55:40.473Z,1.53
2019-01-02T19:58:49.444Z,1.67
2019-01-02T20:01:53.089Z,1.60
2019-01-02T20:05:10.019Z,1.40
2019-01-02T20:08:14.165Z,1.97
2019-01-02T20:11:18.326Z,1.70
2019-01-02T20:14:27.928Z,1.27
2019-01-02T20:17:50.979Z,1.63
2019-01-02T20:20:54.899Z,1.60
2019-01-02T20:23:58.884Z,1.30
2019-01-02T20:27:02.635Z,1.27
2019-01-02T20:30:20.822Z,1.27
2019-01-02T20:33:24.438Z,1.50
2019-01-02T20:36:31.738Z,1.50
2019-01-02T20:39:43.668Z,1.50
2019-01-02T20:42:54.465Z,1.40
2019-01-02T20:46:06.099Z,1.53
2019-01-02T20:49:10.002Z,1.50
2019-01-02T20:52:24.187Z,1.13
2019-01-02T20:55:29.143Z,1.20
2019-01-02T20:58:32.766Z,1.47
2019-01-02T21:01:36.682Z,1.40
2019-01-02T21:08:43.402Z,1.47
2019-01-02T21:11:47.277Z,1.53
2019-01-02T21:15:03.374Z,1.50
2019-01-02T21:18:13.372Z,1.40
2019-01-02T21:21:23.170Z,1.70
2019-01-02T21:24:26.771Z,1.47
2019-01-02T21:27:40.540Z,1.40
2019-01-02T21:30:54.514Z,1.50
2019-01-02T21:34:02.645Z,1.40
2019-01-02T21:37:06.678Z,1.50
2019-01-02T21:40:10.395Z,1.60
2019-01-02T21:43:14.752Z,1.50
2019-01-02T21:46:29.815Z,1.50
2019-01-02T21:49:42.539Z,1.57
2019-01-02T21:52:59.941Z,1.50
2019-01-02T21:56:30.845Z,1.47
2019-01-02T21:59:34.571Z,1.67
2019-01-02T22:02:40.383Z,1.40
2019-01-02T22:05:50.302Z,1.67
2019-01-02T22:08:54.515Z,1.43
2019-01-02T22:12:16.853Z,1.37
2019-01-02T22:15:20.733Z,1.50
2019-01-02T22:18:37.953Z,1.33
2019-01-02T22:21:57.783Z,1.60
2019-01-02T22:25:16.989Z,1.70
2019-01-02T22:28:21.012Z,1.40
2019-01-02T22:31:24.625Z,1.60
2019-01-02T22:34:34.391Z,2.30
2019-01-02T22:37:38.302Z,2.23
2019-01-02T22:40:41.937Z,2.83
2019-01-02T22:43:45.897Z,2.30
2019-01-02T22:46:49.796Z,2.73
2019-01-02T22:49:55.823Z,2.73
2019-01-02T22:52:59.522Z,2.87
2019-01-02T22:56:03.207Z,2.50
2019-01-02T22:59:06.848Z,2.20
2019-01-02T23:02:23.137Z,2.63
2019-01-02T23:05:38.460Z,2.20
2019-01-02T23:09:12.310Z,2.47
2019-01-02T23:12:34.442Z,2.37
2019-01-02T23:16:27.625Z,2.10
2019-01-02T23:20:13.427Z,2.00
2019-01-02T23:23:44.638Z,2.37
2019-01-02T23:27:22.357Z,2.00
2019-01-02T23:30:43.904Z,1.90
2019-01-02T23:34:14.806Z,2.10
2019-01-02T23:37:36.443Z,2.00
2019-01-02T23:40:53.162Z,2.20
2019-01-02T23:44:27.156Z,1.90
2019-01-02T23:47:58.834Z,1.80
2019-01-02T23:51:10.719Z,1.70
2019-01-02T23:54:32.172Z,1.80
2019-01-02T23:58:14.308Z,1.90
